createdAt,value
2023-02-28T00:01:49.212Z,-0.65
2023-02-28T00:04:17.425Z,-0.62
2023-02-28T00:06:45.672Z,-0.66
2023-02-28T00:09:15.377Z,-0.71
2023-02-28T00:11:43.626Z,-0.76
2023-02-28T00:14:11.850Z,-0.80
2023-02-28T00:16:40.183Z,-0.86
2023-02-28T00:19:08.423Z,-0.86
2023-02-28T00:21:36.707Z,-0.86
2023-02-28T00:24:05.324Z,-0.84
2023-02-28T00:26:35.062Z,-0.85
2023-02-28T00:29:03.331Z,-0.79
2023-02-28T00:31:31.555Z,-0.75
2023-02-28T00:33:59.750Z,-0.56
2023-02-28T00:36:27.993Z,-0.56
2023-02-28T00:38:56.457Z,-0.56
2023-02-28T00:41:24.949Z,-0.63
2023-02-28T00:43:54.583Z,-0.58
2023-02-28T00:46:22.951Z,-0.59
2023-02-28T00:48:52.502Z,-0.50
2023-02-28T00:51:20.763Z,-0.33
2023-02-28T00:53:48.989Z,-0.29
2023-02-28T00:56:19.014Z,0.09
2023-02-28T00:58:49.211Z,0.06
2023-02-28T01:01:18.908Z,-0.11
2023-02-28T01:03:47.137Z,-0.23
2023-02-28T01:06:16.076Z,-0.13
2023-02-28T01:08:44.571Z,-0.31
2023-02-28T01:11:14.813Z,-0.08
2023-02-28T01:13:43.195Z,-0.08
2023-02-28T01:16:14.353Z,0.11
2023-02-28T01:18:44.115Z,-0.01
2023-02-28T01:21:14.451Z,-0.35
2023-02-28T01:23:43.241Z,-0.46
2023-02-28T01:26:14.528Z,-0.51
2023-02-28T01:28:43.365Z,-0.53
2023-02-28T01:31:12.184Z,-0.54
2023-02-28T01:33:40.812Z,-0.62
2023-02-28T01:36:14.011Z,-0.63
2023-02-28T01:38:42.595Z,-0.67
2023-02-28T01:41:17.148Z,-0.67
2023-02-28T01:43:57.569Z,-0.63
2023-02-28T01:46:25.929Z,-0.63
2023-02-28T01:48:57.503Z,-0.70
2023-02-28T01:51:29.877Z,-0.69
2023-02-28T01:54:01.958Z,-0.65
2023-02-28T01:56:33.230Z,-0.65
2023-02-28T01:59:01.601Z,-0.54
2023-02-28T02:01:31.566Z,-0.59
2023-02-28T02:04:04.064Z,-0.61
2023-02-28T02:06:38.362Z,-0.62
2023-02-28T02:09:09.365Z,-0.68
2023-02-28T02:11:38.609Z,-0.70
2023-02-28T02:14:17.339Z,-0.69
2023-02-28T02:16:54.983Z,-0.67
2023-02-28T02:19:39.752Z,-0.67
2023-02-28T02:22:27.521Z,-0.71
2023-02-28T02:25:14.182Z,-0.70
2023-02-28T02:27:56.663Z,-0.77
2023-02-28T02:30:46.788Z,-0.83
2023-02-28T02:33:28.774Z,-0.75
2023-02-28T02:35:59.524Z,-0.80
2023-02-28T02:38:35.354Z,-0.77
2023-02-28T02:41:09.396Z,-0.78
2023-02-28T02:43:40.356Z,-0.74
2023-02-28T02:46:11.781Z,-0.72
2023-02-28T02:48:41.658Z,-0.71
2023-02-28T02:51:15.325Z,-0.77
2023-02-28T02:53:47.245Z,-0.77
2023-02-28T02:56:16.391Z,-0.80
2023-02-28T02:58:45.174Z,-0.85
2023-02-28T03:01:17.162Z,-0.84
2023-02-28T03:03:45.782Z,-0.87
2023-02-28T03:06:17.294Z,-0.77
2023-02-28T03:08:45.567Z,-0.86
2023-02-28T03:11:16.560Z,-0.86
2023-02-28T03:14:06.840Z,-0.76
2023-02-28T03:16:38.805Z,-0.79
2023-02-28T03:19:28.754Z,-0.85
2023-02-28T03:22:07.929Z,-0.82
2023-02-28T03:24:42.657Z,-0.84
2023-02-28T03:27:21.296Z,-0.80
2023-02-28T03:29:54.177Z,-0.81
2023-02-28T03:32:27.224Z,-0.77
2023-02-28T03:34:59.227Z,-0.76
2023-02-28T03:37:31.331Z,-0.77
2023-02-28T03:40:03.286Z,-0.76
2023-02-28T03:42:32.297Z,-0.75
2023-02-28T03:45:02.919Z,-0.80
2023-02-28T03:47:33.956Z,-0.79
2023-02-28T03:50:05.316Z,-0.77
2023-02-28T03:52:38.468Z,-0.77
2023-02-28T03:55:10.759Z,-0.73
2023-02-28T03:57:43.520Z,-0.74
2023-02-28T04:00:16.365Z,-0.73
2023-02-28T04:02:44.672Z,-0.70
2023-02-28T04:05:13.053Z,-0.71
2023-02-28T04:07:42.726Z,-0.75
2023-02-28T04:10:12.339Z,-0.67
2023-02-28T04:12:40.646Z,-0.67
2023-02-28T04:15:11.842Z,-0.68
2023-02-28T04:17:40.241Z,-0.66
2023-02-28T04:20:11.514Z,-0.65
2023-02-28T04:22:39.938Z,-0.62
2023-02-28T04:25:10.577Z,-0.64
2023-02-28T04:27:39.150Z,-0.65
2023-02-28T04:30:08.869Z,-0.61
2023-02-28T04:32:37.384Z,-0.63
2023-02-28T04:35:06.674Z,-0.61
2023-02-28T04:37:35.987Z,-0.60
2023-02-28T04:40:04.972Z,-0.53
2023-02-28T04:42:36.928Z,-0.57
2023-02-28T04:45:06.014Z,-0.53
2023-02-28T04:47:34.251Z,-0.57
2023-02-28T04:50:02.456Z,-0.59
2023-02-28T04:52:30.865Z,-0.66
2023-02-28T04:54:59.145Z,-0.51
2023-02-28T04:57:27.406Z,-0.61
2023-02-28T04:59:57.012Z,-0.59
2023-02-28T05:02:25.329Z,-0.53
2023-02-28T05:04:54.893Z,-0.55
2023-02-28T05:07:23.246Z,-0.51
2023-02-28T05:09:51.667Z,-0.52
2023-02-28T05:12:19.918Z,-0.51
2023-02-28T05:14:48.150Z,-0.61
2023-02-28T05:17:17.884Z,-0.55
2023-02-28T05:19:46.896Z,-0.59
2023-02-28T05:22:17.145Z,-0.60
2023-02-28T05:24:45.412Z,-0.75
2023-02-28T05:27:13.961Z,-0.72
2023-02-28T05:29:44.380Z,-0.78
2023-02-28T05:32:12.849Z,-0.68
2023-02-28T05:34:43.845Z,-0.69
2023-02-28T05:37:14.410Z,-0.61
2023-02-28T05:39:42.773Z,-0.62
2023-02-28T05:42:11.427Z,-0.50
2023-02-28T05:44:39.674Z,-0.54
2023-02-28T05:47:08.193Z,-0.54
2023-02-28T05:49:36.451Z,-0.55
2023-02-28T05:52:06.400Z,-0.53
2023-02-28T05:54:34.793Z,-0.43
2023-02-28T05:57:06.168Z,-0.65
2023-02-28T05:59:40.876Z,-0.63
2023-02-28T06:02:14.810Z,-0.64
2023-02-28T06:04:44.047Z,-0.65
2023-02-28T06:07:13.969Z,-0.65
2023-02-28T06:09:42.733Z,-0.60
2023-02-28T06:12:13.217Z,-0.66
2023-02-28T06:14:45.437Z,-0.73
2023-02-28T06:17:15.195Z,-0.73
2023-02-28T06:19:43.982Z,-0.67
2023-02-28T06:22:14.085Z,-0.56
2023-02-28T06:24:42.426Z,-0.49
2023-02-28T06:27:10.715Z,-0.57
2023-02-28T06:29:40.904Z,-0.58
2023-02-28T06:32:09.240Z,-0.64
2023-02-28T06:34:38.081Z,-0.59
2023-02-28T06:37:07.005Z,-0.62
2023-02-28T06:39:36.695Z,-0.77
2023-02-28T06:42:09.631Z,-0.66
2023-02-28T06:44:38.077Z,-0.50
2023-02-28T06:47:07.293Z,-0.47
2023-02-28T06:49:37.603Z,-0.50
2023-02-28T06:52:06.227Z,-0.38
2023-02-28T06:54:34.516Z,-0.27
2023-02-28T06:57:04.986Z,-0.28
2023-02-28T06:59:33.450Z,-0.32
2023-02-28T07:02:03.144Z,-0.20
2023-02-28T07:04:31.515Z,-0.11
2023-02-28T07:06:59.796Z,-0.08
2023-02-28T07:09:31.116Z,-0.13
2023-02-28T07:12:00.204Z,-0.31
2023-02-28T07:14:29.831Z,-0.26
2023-02-28T07:16:58.398Z,-0.18
2023-02-28T07:19:26.686Z,-0.15
2023-02-28T07:21:54.927Z,-0.10
2023-02-28T07:24:26.843Z,-0.09
2023-02-28T07:26:55.084Z,-0.03
2023-02-28T07:29:23.356Z,-0.15
2023-02-28T07:31:54.299Z,-0.03
2023-02-28T07:34:22.858Z,-0.11
2023-02-28T07:36:54.524Z,-0.01
2023-02-28T07:39:23.190Z,-0.01
2023-02-28T07:41:51.426Z,-0.03
2023-02-28T07:44:19.733Z,0.12
2023-02-28T07:46:48.129Z,0.14
2023-02-28T07:49:17.892Z,0.16
2023-02-28T07:51:46.297Z,0.21
2023-02-28T07:54:14.564Z,0.24
2023-02-28T07:56:42.778Z,0.29
2023-02-28T07:59:11.196Z,0.22
2023-02-28T08:01:39.472Z,-0.05
2023-02-28T08:04:07.722Z,0.06
2023-02-28T08:06:37.377Z,0.12
2023-02-28T08:09:05.691Z,-0.06
2023-02-28T08:11:33.972Z,0.09
2023-02-28T08:14:02.225Z,0.23
2023-02-28T08:16:30.600Z,0.46
2023-02-28T08:18:58.904Z,0.06
2023-02-28T08:21:27.305Z,-0.01
2023-02-28T08:23:57.914Z,0.12
2023-02-28T08:26:26.680Z,0.30
2023-02-28T08:28:57.014Z,0.43
2023-02-28T08:31:25.606Z,0.49
2023-02-28T08:33:54.264Z,0.57
2023-02-28T08:36:22.534Z,0.70
2023-02-28T08:38:50.817Z,0.91
2023-02-28T08:41:20.460Z,0.97
2023-02-28T08:43:48.675Z,1.07
2023-02-28T08:46:17.134Z,1.29
2023-02-28T08:48:46.312Z,1.30
2023-02-28T08:51:17.324Z,1.41
2023-02-28T08:53:45.789Z,1.43
2023-02-28T08:56:15.722Z,1.35
2023-02-28T08:58:47.321Z,1.46
2023-02-28T09:01:17.513Z,1.34
2023-02-28T09:03:47.144Z,1.48
2023-02-28T09:06:16.114Z,1.54
2023-02-28T09:08:44.437Z,1.58
2023-02-28T09:11:13.445Z,1.59
2023-02-28T09:13:42.553Z,1.66
2023-02-28T09:16:14.549Z,1.75
2023-02-28T09:18:42.938Z,1.76
2023-02-28T09:21:15.175Z,1.81
2023-02-28T09:23:43.883Z,1.92
2023-02-28T09:26:16.498Z,1.92
2023-02-28T09:28:45.145Z,1.96
2023-02-28T09:31:17.558Z,2.04
2023-02-28T09:33:45.883Z,2.06
2023-02-28T09:36:14.147Z,2.19
2023-02-28T09:38:42.859Z,2.21
2023-02-28T09:41:16.093Z,2.26
2023-02-28T09:43:47.105Z,2.37
2023-02-28T09:46:29.570Z,2.34
2023-02-28T09:48:58.371Z,2.07
2023-02-28T09:51:35.777Z,2.24
2023-02-28T09:54:04.814Z,2.63
2023-02-28T09:56:36.028Z,2.95
2023-02-28T09:59:08.077Z,2.77
2023-02-28T10:01:43.189Z,2.46
2023-02-28T10:04:15.927Z,2.68
2023-02-28T10:06:47.478Z,2.76
2023-02-28T10:09:20.165Z,2.18
2023-02-28T10:11:49.027Z,2.29
2023-02-28T10:14:20.514Z,2.69
2023-02-28T10:16:56.222Z,2.95
2023-02-28T10:19:27.736Z,3.08
2023-02-28T10:22:00.113Z,2.67
2023-02-28T10:24:31.782Z,3.12
2023-02-28T10:27:03.439Z,3.47
2023-02-28T10:29:34.152Z,3.51
2023-02-28T10:32:04.995Z,3.93
2023-02-28T10:34:33.466Z,4.25
2023-02-28T10:37:10.529Z,4.02
2023-02-28T10:39:44.380Z,3.59
2023-02-28T10:42:27.360Z,3.74
2023-02-28T10:45:09.380Z,3.31
2023-02-28T10:47:44.564Z,3.31
2023-02-28T10:50:31.917Z,3.71
2023-02-28T10:53:12.740Z,3.68
2023-02-28T10:55:41.550Z,3.92
2023-02-28T10:58:23.529Z,4.14
2023-02-28T11:00:51.951Z,4.01
2023-02-28T11:03:31.935Z,4.08
2023-02-28T11:06:00.901Z,4.27
2023-02-28T11:08:29.164Z,4.28
2023-02-28T11:10:59.091Z,4.31
2023-02-28T11:13:30.603Z,4.17
2023-02-28T11:16:02.097Z,4.38
2023-02-28T11:18:33.166Z,4.77
2023-02-28T11:21:03.520Z,4.91
2023-02-28T11:23:35.961Z,4.40
2023-02-28T11:26:10.697Z,5.30
2023-02-28T11:28:41.708Z,5.44
2023-02-28T11:31:30.837Z,5.55
2023-02-28T11:34:00.686Z,5.28
2023-02-28T11:36:31.216Z,5.46
2023-02-28T11:39:03.017Z,5.49
2023-02-28T11:41:48.677Z,5.54
2023-02-28T11:44:34.555Z,5.46
2023-02-28T11:47:06.579Z,5.19
2023-02-28T11:49:43.404Z,5.66
2023-02-28T11:52:22.828Z,5.71
2023-02-28T11:55:01.865Z,5.84
2023-02-28T11:57:40.531Z,6.15
2023-02-28T12:00:22.208Z,6.02
2023-02-28T12:03:02.433Z,6.14
2023-02-28T12:05:37.573Z,6.14
2023-02-28T12:08:17.795Z,5.85
2023-02-28T12:10:55.668Z,6.18
2023-02-28T12:13:29.237Z,6.47
2023-02-28T12:16:27.268Z,6.42
2023-02-28T12:19:19.301Z,6.24
2023-02-28T12:22:11.819Z,5.95
2023-02-28T12:25:08.565Z,5.87
2023-02-28T12:27:39.754Z,6.11
2023-02-28T12:30:17.137Z,5.68
2023-02-28T12:32:48.134Z,5.71
2023-02-28T12:35:20.219Z,5.80
2023-02-28T12:37:54.033Z,5.73
2023-02-28T12:40:25.186Z,5.31
2023-02-28T12:42:55.324Z,5.52
2023-02-28T12:45:25.652Z,5.48
2023-02-28T12:47:58.205Z,5.93
2023-02-28T12:50:27.757Z,5.81
2023-02-28T12:53:02.492Z,5.59
2023-02-28T12:55:37.078Z,5.88
2023-02-28T12:58:13.174Z,5.59
2023-02-28T13:01:06.359Z,6.08
2023-02-28T13:03:53.712Z,6.22
2023-02-28T13:06:53.558Z,6.24
2023-02-28T13:09:23.382Z,6.02
2023-02-28T13:11:52.984Z,5.64
2023-02-28T13:14:27.301Z,5.57
2023-02-28T13:17:02.076Z,5.71
2023-02-28T13:19:32.541Z,5.93
2023-02-28T13:22:01.578Z,5.82
2023-02-28T13:24:47.632Z,5.74
2023-02-28T13:27:34.958Z,5.44
2023-02-28T13:30:04.053Z,5.75
2023-02-28T13:32:37.662Z,5.51
2023-02-28T13:35:40.415Z,4.96
2023-02-28T13:38:36.947Z,5.55
2023-02-28T13:41:57.113Z,5.74
2023-02-28T13:44:27.928Z,5.57
2023-02-28T13:47:25.734Z,5.84
2023-02-28T13:49:54.830Z,5.84
2023-02-28T13:52:25.633Z,5.78
2023-02-28T13:55:23.845Z,6.55
2023-02-28T13:58:18.548Z,6.96
2023-02-28T14:01:05.614Z,7.58
2023-02-28T14:03:44.770Z,8.29
2023-02-28T14:06:21.258Z,8.29
2023-02-28T14:08:55.464Z,9.15
2023-02-28T14:11:30.023Z,8.92
2023-02-28T14:13:58.277Z,7.54
2023-02-28T14:16:31.162Z,7.74
2023-02-28T14:19:03.309Z,8.00
2023-02-28T14:21:33.675Z,8.51
2023-02-28T14:24:25.902Z,8.73
2023-02-28T14:27:21.853Z,8.91
2023-02-28T14:30:11.298Z,9.23
2023-02-28T14:32:46.937Z,9.53
2023-02-28T14:35:42.294Z,9.65
2023-02-28T14:38:17.825Z,8.18
2023-02-28T14:40:47.591Z,7.79
2023-02-28T14:43:22.780Z,7.83
2023-02-28T14:45:55.069Z,7.91
2023-02-28T14:48:26.181Z,8.34
2023-02-28T14:50:57.132Z,8.06
2023-02-28T14:53:28.572Z,7.82
2023-02-28T14:55:57.077Z,7.20
2023-02-28T14:58:27.237Z,6.80
2023-02-28T15:00:57.469Z,6.26
2023-02-28T15:03:32.914Z,5.44
2023-02-28T15:06:03.217Z,5.55
2023-02-28T15:08:36.877Z,5.55
2023-02-28T15:11:07.855Z,6.03
2023-02-28T15:13:39.621Z,5.84
2023-02-28T15:16:11.639Z,5.44
2023-02-28T15:18:47.369Z,5.15
2023-02-28T15:21:19.162Z,4.87
2023-02-28T15:23:51.072Z,4.53
2023-02-28T15:26:22.138Z,4.50
2023-02-28T15:28:51.736Z,4.60
2023-02-28T15:31:24.543Z,4.46
2023-02-28T15:33:58.910Z,4.62
2023-02-28T15:36:30.022Z,4.71
2023-02-28T15:39:07.070Z,4.52
2023-02-28T15:41:43.998Z,4.51
2023-02-28T15:44:28.490Z,4.30
2023-02-28T15:47:02.506Z,4.09
2023-02-28T15:49:44.649Z,4.20
2023-02-28T15:52:17.064Z,4.15
2023-02-28T15:54:46.281Z,4.29
2023-02-28T15:57:17.849Z,4.18
2023-02-28T15:59:52.858Z,4.11
2023-02-28T16:02:23.579Z,4.19
2023-02-28T16:05:02.400Z,4.20
2023-02-28T16:07:31.813Z,4.26
2023-02-28T16:10:00.209Z,4.25
2023-02-28T16:12:30.068Z,4.20
2023-02-28T16:15:00.250Z,4.07
2023-02-28T16:17:31.133Z,4.32
2023-02-28T16:20:02.306Z,4.03
2023-02-28T16:22:30.767Z,3.70
2023-02-28T16:24:59.240Z,3.60
2023-02-28T16:27:35.585Z,3.45
2023-02-28T16:30:04.871Z,3.37
2023-02-28T16:32:34.448Z,3.31
2023-02-28T16:35:04.957Z,3.23
2023-02-28T16:37:33.478Z,3.29
2023-02-28T16:40:02.069Z,3.06
2023-02-28T16:42:31.356Z,2.89
2023-02-28T16:45:01.722Z,2.89
2023-02-28T16:47:32.904Z,2.91
2023-02-28T16:50:01.461Z,2.80
2023-02-28T16:52:31.174Z,2.70
2023-02-28T16:55:01.361Z,2.51
2023-02-28T16:57:31.471Z,2.49
2023-02-28T17:00:02.184Z,2.42
2023-02-28T17:02:34.451Z,2.37
2023-02-28T17:05:03.393Z,2.32
2023-02-28T17:07:35.025Z,2.37
2023-02-28T17:10:09.887Z,2.30
2023-02-28T17:12:38.623Z,2.38
2023-02-28T17:15:09.044Z,2.39
2023-02-28T17:17:37.870Z,2.29
2023-02-28T17:20:09.329Z,2.19
2023-02-28T17:22:40.008Z,2.13
2023-02-28T17:25:13.624Z,2.18
2023-02-28T17:27:53.741Z,2.12
2023-02-28T17:30:31.123Z,2.12
2023-02-28T17:33:00.742Z,2.07
2023-02-28T17:35:32.464Z,2.07
2023-02-28T17:38:16.442Z,2.21
2023-02-28T17:40:51.817Z,2.09
2023-02-28T17:43:24.630Z,2.02
2023-02-28T17:48:45.267Z,1.88
2023-02-28T17:51:18.642Z,1.90
2023-02-28T17:53:50.185Z,1.87
2023-02-28T17:56:21.819Z,1.98
2023-02-28T17:58:50.925Z,1.82
2023-02-28T18:01:22.161Z,1.91
2023-02-28T18:03:55.112Z,1.86
2023-02-28T18:06:25.475Z,1.87
2023-02-28T18:08:56.724Z,1.84
2023-02-28T18:11:42.790Z,1.82
2023-02-28T18:14:13.887Z,1.87
2023-02-28T18:16:44.559Z,1.83
2023-02-28T18:19:21.263Z,1.89
2023-02-28T18:21:58.207Z,1.82
2023-02-28T18:24:34.981Z,1.84
2023-02-28T18:27:09.378Z,1.81
2023-02-28T18:29:40.732Z,1.80
2023-02-28T18:32:12.366Z,1.72
2023-02-28T18:34:43.080Z,1.81
2023-02-28T18:37:18.783Z,1.76
2023-02-28T18:39:58.173Z,1.76
2023-02-28T18:42:30.847Z,1.71
2023-02-28T18:45:01.766Z,1.71
2023-02-28T18:47:32.605Z,1.73
2023-02-28T18:50:09.311Z,1.73
2023-02-28T18:52:38.350Z,1.72
2023-02-28T18:55:18.827Z,1.67
2023-02-28T18:57:50.784Z,1.68
2023-02-28T19:00:23.356Z,1.76
2023-02-28T19:02:57.978Z,1.79
2023-02-28T19:05:35.090Z,1.75
2023-02-28T19:08:06.613Z,1.73
2023-02-28T19:10:43.244Z,1.79
2023-02-28T19:13:14.337Z,1.79
2023-02-28T19:15:46.637Z,1.80
2023-02-28T19:18:18.563Z,1.78
2023-02-28T19:20:48.962Z,1.83
2023-02-28T19:23:19.996Z,1.81
2023-02-28T19:25:53.339Z,1.98
2023-02-28T19:28:27.473Z,1.92
2023-02-28T19:30:59.493Z,1.99
2023-02-28T19:33:34.255Z,1.89
2023-02-28T19:36:07.884Z,1.79
2023-02-28T19:38:39.005Z,1.84
2023-02-28T19:41:32.299Z,1.95
2023-02-28T19:44:04.681Z,1.72
2023-02-28T19:46:38.020Z,1.77
2023-02-28T19:49:09.274Z,1.83
2023-02-28T19:51:39.468Z,1.80
2023-02-28T19:54:10.489Z,1.80
2023-02-28T19:56:42.444Z,1.74
2023-02-28T19:59:21.888Z,1.80
2023-02-28T20:02:03.402Z,1.76
2023-02-28T20:04:34.615Z,1.70
2023-02-28T20:07:14.090Z,1.78
2023-02-28T20:09:53.112Z,1.93
2023-02-28T20:12:24.819Z,2.05
2023-02-28T20:15:01.021Z,2.09
2023-02-28T20:17:33.136Z,2.05
2023-02-28T20:20:03.384Z,1.79
2023-02-28T20:22:37.249Z,2.10
2023-02-28T20:25:17.047Z,1.78
2023-02-28T20:27:52.352Z,1.60
2023-02-28T20:30:24.280Z,2.09
2023-02-28T20:32:55.110Z,1.75
2023-02-28T20:35:25.706Z,1.87
2023-02-28T20:37:58.175Z,2.01
2023-02-28T20:40:28.504Z,2.11
2023-02-28T20:43:01.161Z,1.96
2023-02-28T20:45:31.236Z,1.88
2023-02-28T20:48:01.180Z,1.85
2023-02-28T20:50:31.196Z,1.87
2023-02-28T20:53:04.209Z,1.93
2023-02-28T20:55:33.843Z,2.07
2023-02-28T20:58:05.313Z,1.91
2023-02-28T21:00:34.552Z,1.87
2023-02-28T21:03:08.415Z,1.93
2023-02-28T21:05:37.596Z,1.80
2023-02-28T21:08:17.576Z,2.11
2023-02-28T21:10:52.365Z,2.14
2023-02-28T21:13:29.081Z,2.01
2023-02-28T21:16:02.731Z,2.35
2023-02-28T21:18:31.531Z,2.20
2023-02-28T21:21:05.309Z,1.79
2023-02-28T21:23:39.240Z,1.70
2023-02-28T21:26:11.286Z,1.87
2023-02-28T21:28:44.087Z,1.77
2023-02-28T21:31:14.406Z,1.94
2023-02-28T21:33:43.620Z,1.85
2023-02-28T21:36:14.968Z,1.85
2023-02-28T21:38:45.104Z,1.91
2023-02-28T21:41:15.713Z,1.88
2023-02-28T21:43:46.169Z,1.66
2023-02-28T21:46:16.129Z,1.80
2023-02-28T21:48:44.821Z,1.85
2023-02-28T21:51:15.017Z,1.71
2023-02-28T21:53:44.392Z,1.57
2023-02-28T21:56:14.845Z,1.52
2023-02-28T21:58:45.637Z,1.40
2023-02-28T22:01:15.594Z,1.40
2023-02-28T22:03:44.779Z,1.28
2023-02-28T22:06:15.497Z,1.26
2023-02-28T22:08:45.311Z,1.30
2023-02-28T22:11:14.562Z,1.57
2023-02-28T22:13:43.535Z,1.50
2023-02-28T22:16:16.094Z,1.30
2023-02-28T22:18:44.847Z,1.38
2023-02-28T22:21:14.267Z,1.38
2023-02-28T22:23:43.480Z,1.29
2023-02-28T22:26:14.103Z,1.30
2023-02-28T22:28:42.723Z,1.26
2023-02-28T22:31:17.590Z,1.38
2023-02-28T22:33:46.564Z,1.33
2023-02-28T22:36:15.942Z,1.42
2023-02-28T22:38:45.283Z,1.49
2023-02-28T22:41:13.606Z,1.59
2023-02-28T22:43:42.311Z,1.69
2023-02-28T22:46:12.588Z,1.40
2023-02-28T22:48:42.257Z,1.49
2023-02-28T22:51:14.769Z,1.48
2023-02-28T22:53:44.323Z,1.42
2023-02-28T22:56:13.578Z,1.21
2023-02-28T22:58:42.706Z,1.22
2023-02-28T23:01:13.160Z,1.07
2023-02-28T23:03:44.275Z,0.94
2023-02-28T23:06:14.879Z,0.89
2023-02-28T23:08:43.410Z,0.82
2023-02-28T23:11:12.707Z,0.83
2023-02-28T23:13:40.925Z,0.81
2023-02-28T23:16:10.226Z,0.75
2023-02-28T23:18:38.487Z,0.78
2023-02-28T23:21:08.467Z,0.70
2023-02-28T23:23:36.717Z,0.65
2023-02-28T23:26:08.399Z,0.54
2023-02-28T23:28:36.747Z,0.40
2023-02-28T23:31:06.293Z,0.48
2023-02-28T23:33:34.921Z,0.54
2023-02-28T23:36:11.309Z,0.53
2023-02-28T23:38:40.506Z,0.52
2023-02-28T23:41:09.568Z,0.40
2023-02-28T23:43:38.017Z,0.31
2023-02-28T23:46:06.408Z,0.22
2023-02-28T23:48:35.029Z,0.25
2023-02-28T23:51:08.398Z,0.33
2023-02-28T23:53:38.692Z,0.49
2023-02-28T23:56:07.862Z,0.41
2023-02-28T23:58:36.597Z,0.41
